Ora Direzione Vento Velocita' Vento Media Vento Raffica Max. Temperatura Wind Chill Pioggia Pressione
15:10:27.0310 °(NW)9.6 Kts9.8 Kts13.6 Kts16.6 °C15.97 °C0.0 mm0.0 Hpa
14:49:26.0310 °(NW)9.6 Kts9.8 Kts13.6 Kts16.6 °C15.97 °C0.0 mm0.0 Hpa
14:29:52.0310 °(NW)9.6 Kts9.8 Kts13.6 Kts16.6 °C15.97 °C0.0 mm0.0 Hpa
14:10:21.0310 °(NW)9.6 Kts9.8 Kts13.6 Kts16.6 °C15.97 °C0.0 mm0.0 Hpa
13:49:34.0316 °(NW)10.6 Kts11.83 Kts13.4 Kts16.5 °C15.7 °C0.0 mm0.0 Hpa
13:30:15.0293 °(WNW)8.7 Kts7.43 Kts12.7 Kts16.6 °C16.01 °C0.0 mm0.0 Hpa
13:09:49.0318 °(NW)8.6 Kts9.93 Kts12.0 Kts16.8 °C16.26 °C0.0 mm0.0 Hpa
12:49:19.0263 °(W)7.3 Kts7.73 Kts12.0 Kts17.3 °C17.11 °C0.0 mm0.0 Hpa
12:30:02.0269 °(W)7.5 Kts7.2 Kts11.4 Kts17.5 °C17.26 °C0.0 mm0.0 Hpa
12:10:13.0294 °(WNW)6.2 Kts7.7 Kts11.4 Kts18.2 °C18.32 °C0.0 mm0.0 Hpa
11:49:56.0349 °(N)2.7 Kts2.13 Kts9.3 Kts20.1 °C21.26 °C0.0 mm0.0 Hpa
11:29:36.0351 °(N)1.2 Kts2.16 Kts9.3 Kts19.5 °C21.16 °C0.0 mm0.0 Hpa
11:10:21.00 °(N)3.7 Kts3.46 Kts9.3 Kts19.0 °C19.79 °C0.0 mm0.0 Hpa
10:50:11.00 °(N)2.5 Kts2.5 Kts9.3 Kts17.5 °C18.37 °C0.0 mm0.0 Hpa
10:29:41.00 °(N)4.0 Kts3.63 Kts9.3 Kts16.8 °C17.11 °C0.0 mm0.0 Hpa
10:09:26.00 °(N)2.9 Kts3.16 Kts9.3 Kts15.8 °C16.36 °C0.0 mm0.0 Hpa
09:50:17.00 °(N)3.9 Kts4.5 Kts9.3 Kts14.6 °C14.6 °C0.0 mm0.0 Hpa
09:29:54.00 °(N)4.7 Kts4.83 Kts9.3 Kts13.5 °C13.09 °C0.0 mm0.0 Hpa
09:09:40.00 °(N)1.8 Kts3.43 Kts9.3 Kts12.3 °C12.97 °C0.0 mm0.0 Hpa
08:50:27.00 °(N)4.0 Kts3.86 Kts9.3 Kts11.5 °C10.94 °C0.0 mm0.0 Hpa